Artesia Wells, Texas
Current Conditions -  °F | °C
As of 10:26 AM on Friday 21 Nov 2014 (Local Time) from KCOT Reporting Station
Overcast Overcast  
Wind Chill: 22°   Ceiling: 1000
Heat Index: 22°   Visibility: 10mi
Dew Point: 19°   Wind: 9mph
Humidity: 84%   Direction: 140°SE
Pressure: 30.07"   Gusts: NA
Location:  28.28°N, 99.29°W
Report Text: KCOT 211626Z AUTO 14008KT 10SM BKN010 BKN015 OVC033 22/19 A3007 RMK AO2 T02170189 $
Loading
Personal Weather Stations






























Interactive Weather Map New forecast layout! Learn more

10-Day Weather Forecast

Advertisements
Track Severe Weather on mobile